Latest Weather Observations for Bendigo

IDV60801

Issued at 1:05 pm EST Thursday 31 July 2014 (issued every 30 minutes, with the page automatically refreshed every 10 minutes)

About weather observations | Map of weather stations | Latest weather observations for VIC | Other Formats
Station Details ID: 081123 Name: BENDIGO AIRPORT Lat: -36.74 Lon: 144.33 Height: 208.0 m
Data from the previous 72 hours. | See also: Recent months at Bendigo
Date/Time
EST
Temp
°C
App
Temp
°C
Dew
Point
Rel
Hum
%
Delta-T
°C
Wind Press
QNH
hPa
Press
MSL
hPa
Rain
since 9 am
mm
Dir
 
Spd
km/h
Gust
km/h
Spd
kts
Gust
kts
31/01:00pm 16.6 8.4 6.4 51 5.1 NNW 39 69 21 37 1000.0 - 0.0
31/12:30pm 16.3 8.5 6.7 53 4.8 NNW 37 59 20 32 1000.8 - 0.0
31/12:03pm 16.1 8.8 7.3 56 4.4 NNW 35 57 19 31 1001.5 - 0.0
31/12:00pm 15.9 8.5 6.9 55 4.5 NNW 35 52 19 28 1001.6 1002.0 0.0
31/11:30am 15.4 7.7 7.2 58 4.1 NNW 37 59 20 32 1002.4 - 0.0
31/11:13am 15.1 8.8 7.2 59 3.9 NNW 30 56 16 30 1002.8 - 0.0
31/11:00am 14.8 8.6 7.8 63 3.5 NNW 30 46 16 25 1003.0 - 0.0
31/10:34am 13.7 7.4 7.5 66 3.1 N 30 52 16 28 1003.6 - 0.0
31/10:30am 13.6 8.1 7.4 66 3.1 N 26 43 14 23 1003.7 - 0.0
31/10:00am 12.7 6.8 7.4 70 2.6 N 28 43 15 23 1004.3 - 0.0
31/09:32am 12.3 5.9 6.8 69 2.7 N 30 48 16 26 1004.9 - 0.0
31/09:30am 12.2 5.8 6.9 70 2.6 N 30 43 16 23 1004.9 - 0.0
31/09:09am 11.9 5.5 6.8 71 2.5 N 30 48 16 26 1005.0 - 0.0
31/09:00am 11.7 5.7 7.0 73 2.3 N 28 43 15 23 1005.3 1005.7 0.6
31/08:30am 11.2 5.2 7.1 76 2.0 NNW 28 43 15 23 1005.6 - 0.6
31/08:00am 10.4 5.3 7.5 82 1.4 N 24 39 13 21 1005.9 - 0.6
31/07:30am 10.5 5.0 7.7 83 1.4 N 26 35 14 19 1006.4 - 0.6
31/07:00am 11.1 5.4 8.3 83 1.4 N 28 41 15 22 1006.7 - 0.6
31/06:30am 11.5 6.6 8.4 81 1.5 NNW 24 33 13 18 1006.8 - 0.6
31/06:00am 10.8 6.3 8.6 86 1.1 N 22 28 12 15 1006.9 1007.3 0.6
31/05:30am 11.0 6.5 8.4 84 1.3 N 22 32 12 17 1007.3 - 0.6
31/05:00am 11.2 6.6 8.2 82 1.5 N 22 32 12 17 1007.6 - 0.6
31/04:30am 11.4 7.2 8.3 81 1.5 N 20 30 11 16 1008.0 - 0.6
31/04:00am 10.7 7.0 8.1 84 1.3 N 17 28 9 15 1008.5 - 0.6
31/03:30am 10.0 6.3 8.1 88 0.9 N 17 20 9 11 1008.8 - 0.6
31/03:00am 11.4 7.4 8.3 81 1.5 N 19 26 10 14 1009.2 1009.6 0.6
31/02:30am 11.7 8.4 8.2 79 1.7 NNW 15 24 8 13 1009.5 - 0.6
31/02:00am 11.4 7.8 8.4 82 1.5 NNW 17 28 9 15 1010.1 - 0.6
31/01:30am 11.6 7.7 8.5 81 1.5 NW 19 28 10 15 1010.5 - 0.6
31/01:07am 11.8 7.3 8.6 81 1.6 NW 22 35 12 19 1010.8 - 0.6
31/01:00am 11.8 7.7 8.6 81 1.6 NNW 20 30 11 16 1010.8 - 0.6
31/12:30am 12.1 7.6 8.6 79 1.8 NW 22 35 12 19 1011.3 - 0.6
31/12:00am 12.4 8.3 8.7 78 1.9 NNW 20 30 11 16 1011.5 1012.0 0.6
 
Date/Time
EST
Temp
°C
App
Temp
°C
Dew
Point
Rel
Hum
%
Delta-T
°C
Wind Press
QNH
hPa
Press
MSL
hPa
Rain
since 9 am
mm
Dir
 
Spd
km/h
Gust
km/h
Spd
kts
Gust
kts
30/11:30pm 12.6 8.2 8.9 78 1.9 NNW 22 32 12 17 1011.8 - 0.6
30/11:00pm 12.9 8.9 9.0 77 2.0 NNW 20 28 11 15 1012.2 - 0.6
30/10:30pm 12.9 8.1 9.0 77 2.0 NNW 24 35 13 19 1012.4 - 0.6
30/10:00pm 13.1 8.3 9.0 76 2.1 NW 24 39 13 21 1012.8 - 0.6
30/09:45pm 13.3 8.1 9.0 75 2.2 NNW 26 43 14 23 1012.8 - 0.6
30/09:30pm 13.3 9.0 9.2 76 2.1 NNW 22 37 12 20 1012.9 - 0.6
30/09:00pm 13.6 9.2 9.1 74 2.3 NNW 22 35 12 19 1012.8 1013.2 0.6
30/08:30pm 13.8 9.2 9.6 76 2.2 NNW 24 35 13 19 1012.7 - 0.6
30/08:00pm 13.8 9.6 9.8 77 2.1 NNW 22 33 12 18 1013.0 - 0.6
30/07:30pm 13.6 10.5 10.2 80 1.8 NNW 17 26 9 14 1013.2 - 0.6
30/07:00pm 13.8 10.2 10.0 78 2.0 NNW 19 30 10 16 1013.2 - 0.6
30/06:34pm 14.0 10.3 10.2 78 2.0 NNW 20 30 11 16 1013.0 - 0.6
30/06:30pm 14.1 10.4 10.3 78 2.0 NNW 20 35 11 19 1013.0 - 0.6
30/06:00pm 14.1 11.4 10.5 79 1.9 NNW 15 26 8 14 1012.9 1013.3 0.6
30/05:30pm 14.2 10.6 10.6 79 1.9 NW 20 33 11 18 1012.8 - 0.6
30/05:00pm 14.4 11.1 10.8 79 1.9 NW 19 28 10 15 1012.8 - 0.6
30/04:30pm 14.5 10.9 10.7 78 2.0 NW 20 30 11 16 1012.8 - 0.6
30/04:00pm 14.9 11.6 10.9 77 2.1 NW 19 30 10 16 1012.8 - 0.6
30/03:30pm 14.9 12.1 11.3 79 1.9 NW 17 24 9 13 1012.9 - 0.6
30/03:00pm 14.7 11.3 11.1 79 1.9 NW 20 32 11 17 1013.0 1013.4 0.6
30/02:30pm 14.6 10.8 11.2 80 1.8 NW 22 33 12 18 1012.9 - 0.6
30/02:06pm 14.7 11.4 11.5 81 1.7 NW 20 28 11 15 1012.9 - 0.6
30/02:00pm 14.5 11.4 11.5 82 1.6 NW 19 28 10 15 1013.1 - 0.6
30/01:30pm 13.9 10.8 11.6 86 1.2 NW 19 28 10 15 1013.5 - 0.6
30/01:00pm 13.1 9.7 11.2 88 1.0 NW 20 32 11 17 1014.0 - 0.6
30/12:43pm 12.9 9.2 11.6 92 0.7 NW 22 33 12 18 1014.2 - 0.6
30/12:30pm 12.8 9.4 11.4 91 0.7 NW 20 32 11 17 1014.6 - 0.6
30/12:08pm 13.0 9.8 11.4 90 0.9 NW 19 33 10 18 1014.7 - 0.6
30/12:00pm 13.0 9.6 11.4 90 0.9 NW 20 33 11 18 1014.8 1015.2 0.6
30/11:30am 12.8 8.7 11.5 92 0.7 NW 24 43 13 23 1015.1 - 0.6
30/11:00am 12.3 9.3 12.0 98 0.2 NNW 19 32 10 17 1015.3 - 0.6
30/10:30am 12.0 8.8 11.8 99 0.1 NW 20 30 11 16 1015.3 - 0.6
30/10:25am 11.9 8.8 11.7 99 0.1 NW 19 30 10 16 1015.4 - 0.6
30/10:00am 11.7 9.3 11.5 99 0.1 NNW 15 22 8 12 1015.5 - 0.6
30/09:51am 11.6 8.8 11.4 99 0.1 NNW 17 26 9 14 1015.6 - 0.4
30/09:30am 11.6 8.4 11.4 99 0.1 NNW 19 28 10 15 1015.4 - 0.0
30/09:17am 11.8 8.7 11.5 98 0.2 NW 19 28 10 15 1015.4 - 0.0
30/09:00am 11.7 8.3 11.4 98 0.2 NW 20 35 11 19 1015.3 1015.8 4.8
30/08:30am 11.5 8.7 11.3 99 0.1 NNW 17 24 9 13 1015.1 - 4.8
30/08:10am 11.4 8.9 11.2 99 0.1 NW 15 28 8 15 1015.0 - 4.8
30/08:00am 11.4 8.6 11.2 99 0.1 NW 17 26 9 14 1014.9 - 4.6
30/07:30am 11.4 8.9 11.2 99 0.1 NNW 15 22 8 12 1014.9 - 3.8
30/07:25am 11.5 9.1 11.3 99 0.1 NNW 15 20 8 11 1014.8 - 3.6
30/07:00am 11.4 8.9 11.2 99 0.1 NW 15 22 8 12 1014.7 - 3.6
30/06:30am 11.5 8.7 11.3 99 0.1 NNW 17 24 9 13 1014.4 - 3.6
30/06:19am 11.5 9.1 11.3 99 0.1 NNW 15 24 8 13 1014.3 - 3.6
30/06:18am 11.6 9.2 11.4 99 0.1 NNW 15 24 8 13 1014.3 - 3.6
30/06:01am 11.6 8.8 11.4 99 0.1 NNW 17 24 9 13 1014.1 - 3.6
30/06:00am 11.6 9.2 11.4 99 0.1 NNW 15 24 8 13 1014.1 1014.5 3.6
30/05:54am 11.6 8.8 11.4 99 0.1 NNW 17 26 9 14 1014.0 - 3.6
30/05:35am 11.6 8.8 11.4 99 0.1 NW 17 24 9 13 1013.9 - 3.6
30/05:30am 11.7 8.9 11.5 99 0.1 NNW 17 24 9 13 1013.9 - 3.4
30/05:20am 11.7 9.7 11.5 99 0.1 NW 13 20 7 11 1013.9 - 3.4
30/05:07am 11.7 8.6 11.5 99 0.1 NW 19 26 10 14 1013.7 - 3.4
30/05:00am 11.8 8.7 11.5 98 0.2 NW 19 28 10 15 1013.7 - 3.4
30/04:40am 11.8 9.4 11.5 98 0.2 NW 15 20 8 11 1013.7 - 3.2
30/04:37am 11.8 9.4 11.5 98 0.2 NW 15 22 8 12 1013.7 - 3.0
30/04:30am 11.8 9.0 11.5 98 0.2 WNW 17 22 9 12 1013.7 - 3.0
30/04:24am 11.8 9.4 11.3 97 0.3 NW 15 22 8 12 1013.6 - 3.0
30/04:06am 12.0 9.1 11.1 94 0.5 NW 17 24 9 13 1013.5 - 2.8
30/04:00am 12.0 8.8 11.1 94 0.5 NW 19 30 10 16 1013.5 - 2.8
30/03:55am 12.0 8.8 11.2 95 0.4 WNW 19 30 10 16 1013.5 - 2.8
30/03:30am 12.0 9.0 11.8 99 0.1 NW 19 32 10 17 1013.8 - 2.8
30/03:12am 11.9 8.8 11.7 99 0.1 NW 19 30 10 16 1013.8 - 2.8
30/03:00am 11.9 8.8 11.7 99 0.1 NW 19 26 10 14 1013.7 1014.1 2.8
30/02:33am 12.0 8.9 11.5 97 0.3 NW 19 33 10 18 1013.7 - 2.6
30/02:30am 12.1 9.0 11.5 96 0.3 WNW 19 28 10 15 1013.8 - 2.6
30/02:06am 12.1 9.4 11.6 97 0.3 NW 17 26 9 14 1013.9 - 2.6
30/02:00am 12.0 8.9 11.7 98 0.2 NW 19 28 10 15 1013.9 - 2.6
30/01:48am 12.1 9.0 11.6 97 0.3 WNW 19 30 10 16 1014.0 - 2.6
30/01:44am 12.1 9.0 11.6 97 0.3 WNW 19 26 10 14 1013.9 - 2.4
30/01:30am 12.2 8.9 11.6 96 0.3 NW 20 37 11 20 1014.0 - 2.4
30/01:13am 12.2 8.5 11.6 96 0.3 NW 22 33 12 18 1013.7 - 2.4
30/01:08am 12.2 8.6 11.7 97 0.3 NW 22 33 12 18 1013.8 - 2.4
30/01:00am 12.1 8.8 11.6 97 0.3 NW 20 37 11 20 1013.7 - 2.4
30/12:37am 12.3 8.5 11.2 93 0.6 NW 22 35 12 19 1013.6 - 2.2
30/12:30am 12.5 8.7 11.2 92 0.7 NW 22 32 12 17 1013.6 - 2.2
30/12:22am 12.4 8.6 11.1 92 0.7 NW 22 32 12 17 1013.6 - 2.2
30/12:20am 12.5 8.7 11.2 92 0.7 NW 22 32 12 17 1013.6 - 2.2
30/12:00am 12.5 9.3 11.2 92 0.7 NW 19 28 10 15 1013.7 1014.1 2.2
 
Date/Time
EST
Temp
°C
App
Temp
°C
Dew
Point
Rel
Hum
%
Delta-T
°C
Wind Press
QNH
hPa
Press
MSL
hPa
Rain
since 9 am
mm
Dir
 
Spd
km/h
Gust
km/h
Spd
kts
Gust
kts
29/11:30pm 12.2 8.5 11.6 96 0.3 NW 22 37 12 20 1013.7 - 2.2
29/11:27pm 12.2 8.9 11.6 96 0.3 NW 20 37 11 20 1013.7 - 2.2
29/11:00pm 12.0 8.7 11.7 98 0.2 NNW 20 32 11 17 1013.6 - 2.2
29/10:30pm 12.3 8.6 11.4 94 0.5 NNW 22 35 12 19 1013.5 - 1.8
29/10:29pm 12.3 8.5 11.2 93 0.6 NNW 22 35 12 19 1013.5 - 1.6
29/10:21pm 12.6 8.4 11.2 91 0.7 NW 24 35 13 19 1013.7 - 1.6
29/10:00pm 12.6 8.8 11.2 91 0.7 NW 22 30 12 16 1013.5 - 1.6
29/09:30pm 12.6 8.4 11.2 91 0.7 NW 24 35 13 19 1013.2 - 1.6
29/09:00pm 12.4 8.7 11.5 94 0.5 NW 22 33 12 18 1013.0 1013.4 1.6
29/08:59pm 12.4 8.7 11.5 94 0.5 NW 22 33 12 18 1013.0 - 1.6
29/08:30pm 12.2 7.9 11.9 98 0.2 WNW 26 37 14 20 1013.2 - 1.6
29/08:12pm 12.2 7.8 11.7 97 0.3 NW 26 44 14 24 1013.0 - 1.2
29/08:00pm 12.2 7.0 11.6 96 0.3 NW 30 48 16 26 1013.0 - 1.2
29/07:56pm 12.2 7.0 11.6 96 0.3 NW 30 48 16 26 1013.0 - 1.2
29/07:51pm 12.2 6.6 11.6 96 0.3 NW 32 46 17 25 1012.9 - 1.0
29/07:37pm 12.3 7.4 11.4 94 0.5 NW 28 46 15 25 1012.7 - 0.8
29/07:33pm 12.3 7.8 11.4 94 0.5 NW 26 41 14 22 1012.7 - 0.8
29/07:30pm 12.3 7.4 11.4 94 0.5 NW 28 41 15 22 1012.6 - 0.8
29/07:16pm 12.5 7.6 11.4 93 0.6 NW 28 50 15 27 1012.6 - 0.8
29/07:08pm 12.5 6.9 11.4 93 0.6 NW 32 43 17 23 1012.5 - 0.8
29/07:00pm 12.5 7.2 11.2 92 0.7 NW 30 43 16 23 1012.5 - 0.8
29/06:50pm 12.5 7.6 11.4 93 0.6 NW 28 44 15 24 1012.3 - 0.8
29/06:30pm 12.6 7.0 11.5 93 0.6 NW 32 56 17 30 1012.3 - 0.8
29/06:23pm 12.6 7.4 11.5 93 0.6 NW 30 56 16 30 1012.3 - 0.8
29/06:00pm 12.5 8.1 11.6 94 0.5 NW 26 35 14 19 1012.2 1012.6 0.8
29/05:47pm 12.5 8.5 11.7 95 0.4 NW 24 37 13 20 1012.4 - 0.8
29/05:30pm 12.7 8.2 11.4 92 0.7 NW 26 39 14 21 1012.5 - 0.4
29/05:18pm 13.0 7.7 11.1 88 1.0 NW 30 48 16 26 1012.1 - 0.4
29/05:17pm 13.0 7.6 10.9 87 1.1 NW 30 46 16 25 1012.1 - 0.4
29/05:13pm 13.6 8.6 10.8 83 1.5 NW 28 46 15 25 1011.9 - 0.4
29/05:00pm 13.9 9.1 10.3 79 1.9 NW 26 39 14 21 1011.6 - 0.4
29/04:30pm 14.3 7.3 9.9 75 2.3 NW 37 59 20 32 1011.0 - 0.4
29/04:00pm 14.6 8.3 9.8 73 2.5 NW 33 52 18 28 1011.1 - 0.4
29/03:52pm 14.7 9.0 9.7 72 2.6 NW 30 48 16 26 1011.2 - 0.4
29/03:30pm 14.7 10.1 9.5 71 2.7 NNW 24 35 13 19 1011.3 - 0.4
29/03:00pm 14.4 9.1 9.8 74 2.4 NNW 28 44 15 24 1011.2 1011.7 0.4
29/02:30pm 14.7 8.4 9.7 72 2.6 NW 33 46 18 25 1011.5 - 0.4
29/02:00pm 13.9 9.1 10.3 79 1.9 NW 26 46 14 25 1011.3 - 0.4
29/01:31pm 12.7 8.8 10.8 88 1.0 NW 22 37 12 20 1011.6 - 0.4
29/01:30pm 12.7 8.8 10.9 89 1.0 NW 22 37 12 20 1011.6 - 0.4
29/01:00pm 12.4 6.5 10.3 87 1.1 NW 32 50 17 27 1012.2 - 0.0
29/12:54pm 12.8 7.0 9.6 81 1.6 NW 30 50 16 27 1012.2 - 0.0
29/12:52pm 13.0 7.6 9.4 79 1.8 NW 28 48 15 26 1012.1 - 0.0
29/12:30pm 13.9 9.5 8.9 72 2.6 NW 22 35 12 19 1011.9 - 0.0
29/12:18pm 14.4 8.9 9.0 70 2.8 NW 28 41 15 22 1012.1 - 0.0
29/12:00pm 14.5 9.4 9.1 70 2.8 NW 26 37 14 20 1012.4 1012.8 0.0
29/11:30am 12.8 7.8 8.1 73 2.3 NW 24 37 13 20 1013.2 - 0.0
29/11:00am 12.5 8.2 7.8 73 2.3 NW 20 35 11 19 1013.1 - 0.0
29/10:59am 12.5 8.2 7.8 73 2.3 NW 20 35 11 19 1013.1 - 0.0
29/10:38am 11.4 6.2 7.3 76 2.0 NW 24 39 13 21 1013.0 - 0.0
29/10:30am 11.4 5.8 7.1 75 2.1 NW 26 39 14 21 1013.1 - 0.0
29/10:00am 10.9 5.6 7.0 77 1.9 NW 24 43 13 23 1012.9 - 0.0
29/09:41am 10.4 5.7 6.2 75 2.0 NW 20 32 11 17 1013.0 - 0.0
29/09:30am 9.9 5.2 6.2 78 1.7 NW 20 32 11 17 1013.1 - 0.0
29/09:00am 9.0 3.5 5.7 80 1.5 NW 24 35 13 19 1013.2 1013.6 0.0
29/08:30am 7.9 3.3 5.5 85 1.1 NNW 19 28 10 15 1013.3 - 0.0
29/08:00am 7.0 3.1 5.3 89 0.8 NNW 15 20 8 11 1013.6 - 0.0
29/07:30am 6.4 3.2 5.2 92 0.5 NNW 11 15 6 8 1013.5 - 0.0
29/07:00am 6.8 3.4 6.1 95 0.3 NNW 13 19 7 10 1013.1 - 0.0
29/06:30am 4.3 2.6 4.2 99 0.0 NNW 2 7 1 4 1013.0 - 0.0
29/06:23am 3.1 0.5 3.0 99 0.0 N 6 7 3 4 1013.3 - 0.0
29/06:00am 2.9 1.4 2.8 99 0.0 CALM 0 0 0 0 1013.2 1013.6 0.0
29/05:52am 3.5 2.1 3.4 99 0.0 CALM 0 0 0 0 1013.2 - 0.0
29/05:31am 2.8 1.2 2.7 99 0.0 CALM 0 0 0 0 1012.9 - 0.0
29/05:30am 2.8 1.2 2.7 99 0.0 CALM 0 0 0 0 1012.9 - 0.0
29/05:01am 3.2 1.7 3.1 99 0.0 CALM 0 0 0 0 1013.1 - 0.0
29/05:00am 3.1 1.6 3.0 99 0.0 CALM 0 0 0 0 1013.1 - 0.0
29/04:51am 3.1 1.6 3.0 99 0.0 CALM 0 0 0 0 1013.2 - 0.0
29/04:30am 2.6 1.0 2.5 99 0.0 CALM 0 0 0 0 1013.2 - 0.0
29/04:15am 3.3 1.8 3.2 99 0.0 CALM 0 0 0 0 1013.1 - 0.0
29/04:00am 4.6 3.0 4.5 99 0.0 NNE 2 7 1 4 1013.2 - 0.0
29/03:30am 4.5 1.6 4.4 99 0.0 ENE 9 13 5 7 1013.2 - 0.0
29/03:00am 4.9 1.6 4.5 97 0.2 ENE 11 15 6 8 1013.3 1013.7 0.0
29/02:30am 7.3 4.8 6.4 94 0.4 NW 9 15 5 8 1013.7 - 0.0
29/02:00am 7.6 4.7 6.5 93 0.5 NW 11 17 6 9 1013.7 - 0.0
29/01:30am 7.6 4.3 6.4 92 0.6 NW 13 17 7 9 1013.7 - 0.0
29/01:00am 7.3 4.7 6.1 92 0.5 NW 9 13 5 7 1014.0 - 0.0
29/12:30am 7.2 4.5 5.7 90 0.7 WNW 9 15 5 8 1014.2 - 0.0
29/12:00am 7.2 4.4 5.2 87 0.9 NW 9 15 5 8 1014.7 1015.1 0.0
 
Date/Time
EST
Temp
°C
App
Temp
°C
Dew
Point
Rel
Hum
%
Delta-T
°C
Wind Press
QNH
hPa
Press
MSL
hPa
Rain
since 9 am
mm
Dir
 
Spd
km/h
Gust
km/h
Spd
kts
Gust
kts
28/11:30pm 7.7 4.5 5.3 85 1.1 NW 11 19 6 10 1014.9 - 0.0
28/11:00pm 8.3 5.2 5.4 82 1.3 NW 11 17 6 9 1015.1 - 0.0
28/10:30pm 9.0 5.2 5.6 79 1.6 NW 15 20 8 11 1015.1 - 0.0
28/10:00pm 9.4 5.9 5.6 77 1.7 NNW 13 19 7 10 1015.0 - 0.0
28/09:30pm 9.8 6.4 5.8 76 1.9 NNW 13 20 7 11 1014.9 - 0.0
28/09:00pm 10.2 6.9 6.4 77 1.8 NNW 13 22 7 12 1014.9 1015.3 0.0
28/08:30pm 10.1 6.9 6.8 80 1.6 NNW 13 19 7 10 1015.2 - 0.0
28/08:00pm 8.6 5.7 6.4 86 1.0 N 11 13 6 7 1014.7 - 0.0
28/07:30pm 9.5 6.7 6.8 83 1.3 N 11 13 6 7 1014.5 - 0.0
28/07:00pm 11.2 8.5 7.5 78 1.8 N 11 15 6 8 1014.4 - 0.0
28/06:30pm 11.7 8.7 7.8 77 1.9 N 13 17 7 9 1014.6 - 0.0
28/06:00pm 12.4 9.8 7.7 73 2.3 N 11 15 6 8 1014.5 1014.9 0.0
28/05:30pm 13.3 10.8 8.0 70 2.6 N 11 17 6 9 1014.5 - 0.0
28/05:00pm 14.4 11.8 7.7 64 3.4 NNW 11 20 6 11 1014.6 - 0.0
28/04:30pm 14.7 10.6 7.7 63 3.5 N 19 26 10 14 1014.5 - 0.0
28/04:00pm 15.4 11.3 7.9 61 3.8 N 19 24 10 13 1014.5 - 0.0
28/03:30pm 15.4 11.2 8.2 62 3.7 N 20 26 11 14 1014.3 - 0.0
28/03:00pm 15.2 11.8 7.7 61 3.8 N 15 22 8 12 1014.3 1014.7 0.0
28/02:30pm 14.9 10.7 7.5 61 3.7 N 19 28 10 15 1014.5 - 0.0
28/02:00pm 14.8 11.0 7.4 61 3.7 N 17 22 9 12 1015.0 - 0.0
28/01:36pm 14.4 10.5 7.0 61 3.7 N 17 20 9 11 1015.3 - 0.0
28/01:30pm 14.0 9.9 6.1 59 3.8 N 17 26 9 14 1015.4 - 0.0

Other Formats:

Comma delimited format used in spreadsheet applications
http://www.bom.gov.au/fwo/IDV60801/IDV60801.94855.axf

JavaScript Object Notation format (JSON) in row-major order
http://www.bom.gov.au/fwo/IDV60801/IDV60801.94855.json